This is the latest recevied weather packets stored in our database for station/object SP2MHC-2. If no packets are shown the sender has not sent any weather packets the latest 10 day(s).
| Time | Temp. | Humidity | Pressure | Rain* | Wind** | Luminosity | Snow |
|---|---|---|---|---|---|---|---|
| 1777705787 | 27.22° C | 24% | 1019.9 hPa | - | - | - | - |
| 1777705786 | 27.22° C | 24% | 1019.9 hPa | - | - | - | - |
| 1777704887 | 26.67° C | 25% | 1020 hPa | - | - | - | - |
| 1777704886 | 26.67° C | 25% | 1020 hPa | - | - | - | - |
| 1777703986 | 27.22° C | 24% | 1019.9 hPa | - | - | - | - |
| 1777703986 | 27.22° C | 24% | 1019.9 hPa | - | - | - | - |
| 1777703118 | 27.22° C | 24% | 1019.9 hPa | - | - | - | - |
| 1777703086 | 27.22° C | 24% | 1019.9 hPa | - | - | - | - |
| 1777703086 | 27.22° C | 24% | 1019.9 hPa | - | - | - | - |
| 1777702186 | 25.56° C | 26% | 1019.9 hPa | - | - | - | - |
| 1777702185 | 25.56° C | 26% | 1019.9 hPa | - | - | - | - |
| 1777701286 | 26.67° C | 26% | 1019.9 hPa | - | - | - | - |
| 1777701285 | 26.67° C | 26% | 1019.9 hPa | - | - | - | - |
| 1777700386 | 24.44° C | 29% | 1019.9 hPa | - | - | - | - |
| 1777700385 | 24.44° C | 29% | 1019.9 hPa | - | - | - | - |
| 1777699486 | 24.44° C | 28% | 1020 hPa | - | - | - | - |
| 1777699485 | 24.44° C | 28% | 1020 hPa | - | - | - | - |
| 1777698618 | 21.67° C | 31% | 1020.1 hPa | - | - | - | - |
| 1777698585 | 21.67° C | 31% | 1020.1 hPa | - | - | - | - |
| 1777698585 | 21.67° C | 31% | 1020.1 hPa | - | - | - | - |
| 1777697685 | 21.11° C | 31% | 1020.1 hPa | - | - | - | - |
| 1777697684 | 21.11° C | 31% | 1020.1 hPa | - | - | - | - |
| 1777696785 | 17.78° C | 35% | 1020.3 hPa | - | - | - | - |
| 1777696784 | 17.78° C | 35% | 1020.3 hPa | - | - | - | - |
| 1777695920 | 16.67° C | 38% | 1020.4 hPa | - | - | - | - |
* Rain since midnight (hover to see other rain measurements)
** Current wind speed in m/s (hover to see current wind gust speed)